createdAt,value
2016-08-19T00:00:13.792Z,1012.27
2016-08-19T00:01:13.815Z,1012.25
2016-08-19T00:02:13.836Z,1012.28
2016-08-19T00:03:13.855Z,1012.28
2016-08-19T00:04:13.876Z,1012.29
2016-08-19T00:05:13.893Z,1012.26
2016-08-19T00:06:13.923Z,1012.29
2016-08-19T00:07:13.933Z,1012.28
2016-08-19T00:08:14.077Z,1012.29
2016-08-19T00:09:13.973Z,1012.31
2016-08-19T00:10:13.998Z,1012.29
2016-08-19T00:11:14.013Z,1012.29
2016-08-19T00:12:14.084Z,1012.29
2016-08-19T00:13:14.055Z,1012.33
2016-08-19T00:14:14.073Z,1012.36
2016-08-19T00:15:14.092Z,1012.33
2016-08-19T00:16:14.115Z,1012.37
2016-08-19T00:17:14.135Z,1012.36
2016-08-19T00:18:14.156Z,1012.35
2016-08-19T00:19:14.173Z,1012.3
2016-08-19T00:20:14.193Z,1012.3
2016-08-19T00:21:14.229Z,1012.27
2016-08-19T00:22:14.234Z,1012.25
2016-08-19T00:23:14.302Z,1012.29
2016-08-19T00:24:14.275Z,1012.28
2016-08-19T00:25:14.293Z,1012.26
2016-08-19T00:26:14.327Z,1012.23
2016-08-19T00:27:14.333Z,1012.25
2016-08-19T00:28:14.353Z,1012.2
2016-08-19T00:29:14.371Z,1012.22
2016-08-19T00:30:14.395Z,1012.17
2016-08-19T00:31:14.414Z,1012.18
2016-08-19T00:32:14.486Z,1012.12
2016-08-19T00:33:14.456Z,1012.11
2016-08-19T00:34:14.472Z,1012.09
2016-08-19T00:35:14.502Z,1012.12
2016-08-19T00:36:14.513Z,1012.14
2016-08-19T00:37:14.526Z,1012.12
2016-08-19T00:38:14.551Z,1012.08
2016-08-19T00:39:14.572Z,1012.07
2016-08-19T00:40:14.592Z,1012.08
2016-08-19T00:41:14.608Z,1012.06
2016-08-19T00:42:14.640Z,1012.04
2016-08-19T00:43:14.650Z,1012.01
2016-08-19T00:44:14.667Z,1012.02
2016-08-19T00:45:14.686Z,1012
2016-08-19T00:46:14.708Z,1012
2016-08-19T00:47:14.731Z,1012.01
2016-08-19T00:48:14.748Z,1012.01
2016-08-19T00:49:14.763Z,1012.01
2016-08-19T00:50:14.788Z,1012.04
2016-08-19T00:51:14.810Z,1012
2016-08-19T00:52:14.828Z,1012.03
2016-08-19T00:53:14.850Z,1011.99
2016-08-19T00:54:14.866Z,1012
2016-08-19T00:55:14.887Z,1012
2016-08-19T00:56:14.912Z,1011.99
2016-08-19T00:57:14.930Z,1011.97
2016-08-19T00:58:14.951Z,1011.98
2016-08-19T00:59:14.963Z,1011.96
2016-08-19T01:00:14.987Z,1011.95
2016-08-19T01:01:15.014Z,1011.93
2016-08-19T01:02:15.026Z,1011.92
2016-08-19T01:03:15.044Z,1011.9
2016-08-19T01:04:15.065Z,1011.93
2016-08-19T01:05:15.083Z,1011.91
2016-08-19T01:06:15.107Z,1011.92
2016-08-19T01:07:15.126Z,1011.92
2016-08-19T01:08:15.144Z,1011.95
2016-08-19T01:09:15.163Z,1011.94
2016-08-19T01:10:15.183Z,1011.9
2016-08-19T01:11:15.203Z,1011.92
2016-08-19T01:12:15.223Z,1011.91
2016-08-19T01:13:15.244Z,1011.92
2016-08-19T01:14:15.277Z,1011.91
2016-08-19T01:15:15.284Z,1011.92
2016-08-19T01:16:15.299Z,1011.9
2016-08-19T01:17:15.324Z,1011.91
2016-08-19T01:18:15.345Z,1011.94
2016-08-19T01:19:15.361Z,1011.93
2016-08-19T01:20:15.382Z,1011.98
2016-08-19T01:21:15.396Z,1011.98
2016-08-19T01:22:15.423Z,1011.96
2016-08-19T01:23:15.444Z,1011.9
2016-08-19T01:24:15.457Z,1011.91
2016-08-19T01:25:15.477Z,1011.93
2016-08-19T01:26:15.508Z,1011.9
2016-08-19T01:27:15.517Z,1011.9
2016-08-19T01:28:15.534Z,1011.89
2016-08-19T01:29:15.551Z,1011.89
2016-08-19T01:30:15.576Z,1011.83
2016-08-19T01:31:15.591Z,1011.88
2016-08-19T01:32:15.611Z,1011.86
2016-08-19T01:33:15.637Z,1011.88
2016-08-19T01:34:15.653Z,1011.83
2016-08-19T01:35:15.680Z,1011.86
2016-08-19T01:36:15.691Z,1011.89
2016-08-19T01:37:15.776Z,1011.89
2016-08-19T01:38:15.731Z,1011.9
2016-08-19T01:39:15.798Z,1011.91
2016-08-19T01:40:15.770Z,1011.91
2016-08-19T01:41:15.789Z,1011.92
2016-08-19T01:42:15.806Z,1011.9
2016-08-19T01:43:15.833Z,1011.9
2016-08-19T01:44:15.854Z,1011.9
2016-08-19T01:45:15.868Z,1011.88
2016-08-19T01:46:15.891Z,1011.9
2016-08-19T01:47:15.913Z,1011.89
2016-08-19T01:48:15.931Z,1011.89
2016-08-19T01:49:15.949Z,1011.92
2016-08-19T01:50:15.973Z,1011.92
2016-08-19T01:51:15.985Z,1011.93
2016-08-19T01:52:16.013Z,1011.92
2016-08-19T01:53:16.030Z,1011.98
2016-08-19T01:54:16.049Z,1011.97
2016-08-19T01:55:16.062Z,1011.97
2016-08-19T01:56:16.081Z,1011.96
2016-08-19T01:57:16.103Z,1011.96
2016-08-19T01:58:16.122Z,1011.96
2016-08-19T01:59:16.143Z,1011.92
2016-08-19T02:00:16.160Z,1011.92
2016-08-19T02:01:16.178Z,1011.93
2016-08-19T02:02:16.206Z,1011.92
2016-08-19T02:03:16.222Z,1011.92
2016-08-19T02:04:16.237Z,1011.88
2016-08-19T02:05:16.313Z,1011.9
2016-08-19T02:06:16.276Z,1011.92
2016-08-19T02:07:16.298Z,1011.93
2016-08-19T02:08:16.323Z,1011.93
2016-08-19T02:09:16.340Z,1011.92
2016-08-19T02:10:16.353Z,1011.92
2016-08-19T02:11:16.373Z,1011.96
2016-08-19T02:12:16.390Z,1011.97
2016-08-19T02:13:16.410Z,1011.97
2016-08-19T02:14:16.430Z,1011.95
2016-08-19T02:15:16.461Z,1011.95
2016-08-19T02:16:16.473Z,1011.95
2016-08-19T02:17:16.483Z,1011.93
2016-08-19T02:18:16.514Z,1011.94
2016-08-19T02:19:16.533Z,1011.93
2016-08-19T02:20:16.541Z,1011.97
2016-08-19T02:21:16.574Z,1011.95
2016-08-19T02:22:16.580Z,1011.98
2016-08-19T02:23:16.607Z,1011.97
2016-08-19T02:24:16.621Z,1011.93
2016-08-19T02:25:16.642Z,1011.89
2016-08-19T02:26:16.664Z,1011.89
2016-08-19T02:27:16.678Z,1011.91
2016-08-19T02:28:16.701Z,1011.85
2016-08-19T02:29:16.721Z,1011.91
2016-08-19T02:30:16.739Z,1011.93
2016-08-19T02:31:16.762Z,1011.94
2016-08-19T02:32:16.831Z,1011.92
2016-08-19T02:33:16.802Z,1011.95
2016-08-19T02:34:16.813Z,1011.96
2016-08-19T02:35:16.832Z,1011.95
2016-08-19T02:36:16.852Z,1011.95
2016-08-19T02:37:16.872Z,1011.95
2016-08-19T02:38:16.893Z,1011.93
2016-08-19T02:39:16.912Z,1011.95
2016-08-19T02:40:16.931Z,1011.96
2016-08-19T02:41:16.953Z,1011.94
2016-08-19T02:42:16.972Z,1011.92
2016-08-19T02:43:16.982Z,1011.95
2016-08-19T02:44:17.003Z,1011.93
2016-08-19T02:45:17.021Z,1011.93
2016-08-19T02:46:17.043Z,1011.92
2016-08-19T02:47:17.065Z,1011.92
2016-08-19T02:48:17.081Z,1011.91
2016-08-19T02:49:17.101Z,1011.96
2016-08-19T02:50:17.120Z,1011.94
2016-08-19T02:51:17.135Z,1011.91
2016-08-19T02:52:17.162Z,1011.87
2016-08-19T02:53:17.179Z,1011.9
2016-08-19T02:54:17.198Z,1011.92
2016-08-19T02:55:17.213Z,1011.94
2016-08-19T02:56:17.234Z,1011.96
2016-08-19T02:57:17.251Z,1011.94
2016-08-19T02:58:17.271Z,1012.01
2016-08-19T02:59:17.291Z,1012
2016-08-19T03:00:17.313Z,1011.98
2016-08-19T03:01:17.329Z,1012
2016-08-19T03:02:17.350Z,1012
2016-08-19T03:03:17.372Z,1011.94
2016-08-19T03:04:17.386Z,1011.94
2016-08-19T03:05:17.403Z,1011.96
2016-08-19T03:06:17.424Z,1011.94
2016-08-19T03:07:17.442Z,1011.96
2016-08-19T03:08:17.457Z,1011.96
2016-08-19T03:09:17.483Z,1011.96
2016-08-19T03:10:17.502Z,1012
2016-08-19T03:11:17.522Z,1011.96
2016-08-19T03:12:17.545Z,1011.96
2016-08-19T03:13:17.555Z,1011.96
2016-08-19T03:14:17.779Z,1011.95
2016-08-19T03:15:17.602Z,1011.95
2016-08-19T03:16:17.616Z,1011.95
2016-08-19T03:17:17.642Z,1011.93
2016-08-19T03:18:17.655Z,1011.9
2016-08-19T03:19:17.687Z,1011.92
2016-08-19T03:20:17.699Z,1011.91
2016-08-19T03:21:17.759Z,1011.94
2016-08-19T03:22:17.731Z,1011.9
2016-08-19T03:23:17.754Z,1011.89
2016-08-19T03:24:17.770Z,1011.87
2016-08-19T03:25:17.782Z,1011.9
2016-08-19T03:26:17.802Z,1011.89
2016-08-19T03:27:17.821Z,1011.91
2016-08-19T03:28:17.842Z,1011.91
2016-08-19T03:29:17.864Z,1011.9
2016-08-19T03:30:18.008Z,1011.91
2016-08-19T03:31:17.900Z,1011.91
2016-08-19T03:32:18.072Z,1011.93
2016-08-19T03:33:17.944Z,1011.89
2016-08-19T03:34:17.962Z,1011.91
2016-08-19T03:35:17.979Z,1011.93
2016-08-19T03:36:17.997Z,1011.91
2016-08-19T03:37:18.009Z,1011.89
2016-08-19T03:38:18.032Z,1011.92
2016-08-19T03:39:18.058Z,1011.92
2016-08-19T03:40:18.071Z,1011.9
2016-08-19T03:41:18.091Z,1011.89
2016-08-19T03:42:18.110Z,1011.86
2016-08-19T03:43:18.245Z,1011.88
2016-08-19T03:44:18.154Z,1011.87
2016-08-19T03:45:18.188Z,1011.91
2016-08-19T03:46:18.189Z,1011.86
2016-08-19T03:47:18.203Z,1011.88
2016-08-19T03:48:18.224Z,1011.89
2016-08-19T03:49:18.244Z,1011.9
2016-08-19T03:50:18.265Z,1011.87
2016-08-19T03:51:18.279Z,1011.87
2016-08-19T03:52:18.301Z,1011.88
2016-08-19T03:53:18.313Z,1011.87
2016-08-19T03:54:18.330Z,1011.87
2016-08-19T03:55:18.353Z,1011.87
2016-08-19T03:56:18.375Z,1011.86
2016-08-19T03:57:18.394Z,1011.88
2016-08-19T03:58:18.407Z,1011.86
2016-08-19T03:59:18.434Z,1011.89
2016-08-19T04:00:18.443Z,1011.92
2016-08-19T04:01:18.464Z,1011.91
2016-08-19T04:02:18.485Z,1011.94
2016-08-19T04:03:18.502Z,1011.88
2016-08-19T04:04:18.522Z,1011.92
2016-08-19T04:05:18.538Z,1011.95
2016-08-19T04:06:18.556Z,1011.94
2016-08-19T04:07:18.574Z,1011.98
2016-08-19T04:08:18.591Z,1011.97
2016-08-19T04:09:18.612Z,1011.95
2016-08-19T04:10:18.633Z,1011.96
2016-08-19T04:11:18.653Z,1011.98
2016-08-19T04:12:18.673Z,1011.95
2016-08-19T04:13:18.689Z,1011.93
2016-08-19T04:14:18.708Z,1011.94
2016-08-19T04:15:18.726Z,1011.91
2016-08-19T04:16:18.742Z,1011.96
2016-08-19T04:17:18.771Z,1011.94
2016-08-19T04:18:18.781Z,1011.92
2016-08-19T04:19:18.803Z,1011.93
2016-08-19T04:20:18.822Z,1011.94
2016-08-19T04:21:18.841Z,1011.95
2016-08-19T04:22:18.856Z,1011.94
2016-08-19T04:23:18.876Z,1011.99
2016-08-19T04:24:18.903Z,1011.97
2016-08-19T04:25:18.907Z,1012
2016-08-19T04:26:18.924Z,1011.97
2016-08-19T04:27:18.953Z,1011.98
2016-08-19T04:28:18.966Z,1012.01
2016-08-19T04:29:18.988Z,1012.03
2016-08-19T04:30:19.005Z,1012.01
2016-08-19T04:31:19.021Z,1012.03
2016-08-19T04:32:19.041Z,1012.01
2016-08-19T04:33:19.062Z,1012.05
2016-08-19T04:34:19.078Z,1012.02
2016-08-19T04:35:19.098Z,1012
2016-08-19T04:36:19.113Z,1012.03
2016-08-19T04:37:19.135Z,1012.04
2016-08-19T04:38:19.151Z,1012.07
2016-08-19T04:39:19.172Z,1012.06
2016-08-19T04:40:19.200Z,1012.06
2016-08-19T04:41:19.211Z,1012.08
2016-08-19T04:42:19.228Z,1012.1
2016-08-19T04:43:19.245Z,1012.14
2016-08-19T04:44:19.268Z,1012.12
2016-08-19T04:45:19.283Z,1012.12
2016-08-19T04:46:19.299Z,1012.11
2016-08-19T04:47:19.321Z,1012.1
2016-08-19T04:48:19.341Z,1012.15
2016-08-19T04:49:19.360Z,1012.13
2016-08-19T04:50:19.373Z,1012.17
2016-08-19T04:51:19.395Z,1012.17
2016-08-19T04:52:19.415Z,1012.2
2016-08-19T04:53:19.439Z,1012.2
2016-08-19T04:54:19.452Z,1012.22
2016-08-19T04:55:19.470Z,1012.19
2016-08-19T04:56:19.490Z,1012.19
2016-08-19T04:57:19.519Z,1012.17
2016-08-19T04:58:19.533Z,1012.21
2016-08-19T04:59:19.552Z,1012.16
2016-08-19T05:00:19.569Z,1012.2
2016-08-19T05:01:19.700Z,1012.21
2016-08-19T05:02:19.602Z,1012.23
2016-08-19T05:03:19.624Z,1012.25
2016-08-19T05:04:19.643Z,1012.23
2016-08-19T05:05:19.657Z,1012.2
2016-08-19T05:06:19.679Z,1012.24
2016-08-19T05:07:19.699Z,1012.25
2016-08-19T05:08:19.716Z,1012.23
2016-08-19T05:09:19.730Z,1012.22
2016-08-19T05:10:19.753Z,1012.22
2016-08-19T05:11:19.772Z,1012.22
2016-08-19T05:12:19.796Z,1012.15
2016-08-19T05:13:19.812Z,1012.16
2016-08-19T05:14:19.862Z,1012.13
2016-08-19T05:15:19.848Z,1012.12
2016-08-19T05:16:19.869Z,1012.13
2016-08-19T05:17:19.881Z,1012.1
2016-08-19T05:18:20.108Z,1012.1
2016-08-19T05:19:19.926Z,1012.1
2016-08-19T05:20:19.943Z,1012.09
2016-08-19T05:21:19.959Z,1012.11
2016-08-19T05:22:19.983Z,1012.13
2016-08-19T05:23:20.003Z,1012.16
2016-08-19T05:24:20.015Z,1012.14
2016-08-19T05:25:20.035Z,1012.17
2016-08-19T05:26:20.052Z,1012.14
2016-08-19T05:27:20.085Z,1012.18
2016-08-19T05:28:20.096Z,1012.17
2016-08-19T05:29:20.115Z,1012.17
2016-08-19T05:30:20.136Z,1012.22
2016-08-19T05:31:20.157Z,1012.26
2016-08-19T05:32:20.230Z,1012.35
2016-08-19T05:33:20.191Z,1012.39
2016-08-19T05:34:20.217Z,1012.46
2016-08-19T05:35:20.231Z,1012.41
2016-08-19T05:36:20.254Z,1012.49
2016-08-19T05:37:20.277Z,1012.49
2016-08-19T05:38:20.296Z,1012.49
2016-08-19T05:39:20.314Z,1012.53
2016-08-19T05:40:20.340Z,1012.5
2016-08-19T05:41:20.355Z,1012.49
2016-08-19T05:42:20.394Z,1012.49
2016-08-19T05:43:20.397Z,1012.54
2016-08-19T05:44:20.427Z,1012.56
2016-08-19T05:45:20.445Z,1012.6
2016-08-19T05:46:20.469Z,1012.57
2016-08-19T05:47:20.493Z,1012.64
2016-08-19T05:48:20.517Z,1012.66
2016-08-19T05:49:20.545Z,1012.67
2016-08-19T05:50:20.560Z,1012.72
2016-08-19T05:51:20.594Z,1012.73
2016-08-19T05:52:20.616Z,1012.7
2016-08-19T05:53:20.642Z,1012.7
2016-08-19T05:54:20.671Z,1012.67
2016-08-19T05:55:20.689Z,1012.65
2016-08-19T05:56:20.720Z,1012.66
2016-08-19T05:57:20.746Z,1012.66
2016-08-19T05:58:20.774Z,1012.7
2016-08-19T05:59:20.795Z,1012.68
2016-08-19T06:00:20.827Z,1012.65
2016-08-19T06:01:20.854Z,1012.66
2016-08-19T06:02:20.874Z,1012.67
2016-08-19T06:03:20.902Z,1012.68
2016-08-19T06:04:20.933Z,1012.69
2016-08-19T06:05:20.958Z,1012.72
2016-08-19T06:06:20.992Z,1012.75
2016-08-19T06:07:21.015Z,1012.77
2016-08-19T06:08:21.047Z,1012.77
2016-08-19T06:09:21.070Z,1012.74
2016-08-19T06:10:21.107Z,1012.76
2016-08-19T06:11:21.128Z,1012.78
2016-08-19T06:12:21.155Z,1012.79
2016-08-19T06:13:21.192Z,1012.84
2016-08-19T06:14:21.216Z,1012.83
2016-08-19T06:15:21.243Z,1012.83
2016-08-19T06:16:21.275Z,1012.87
2016-08-19T06:17:21.298Z,1012.9
2016-08-19T06:18:21.337Z,1012.93
2016-08-19T06:19:21.362Z,1012.92
2016-08-19T06:20:21.392Z,1012.9
2016-08-19T06:21:21.423Z,1012.93
2016-08-19T06:22:21.452Z,1012.89
2016-08-19T06:23:21.479Z,1012.89
2016-08-19T06:24:21.511Z,1012.89
2016-08-19T06:25:21.541Z,1012.9
2016-08-19T06:26:21.572Z,1012.9
2016-08-19T06:27:21.606Z,1012.93
2016-08-19T06:28:21.643Z,1012.94
2016-08-19T06:29:21.668Z,1012.93
2016-08-19T06:30:21.693Z,1012.96
2016-08-19T06:31:21.731Z,1012.94
2016-08-19T06:32:21.752Z,1012.92
2016-08-19T06:33:21.791Z,1012.95
2016-08-19T06:34:21.823Z,1012.93
2016-08-19T06:35:21.862Z,1012.91
2016-08-19T06:36:21.880Z,1012.95
2016-08-19T06:37:21.913Z,1012.95
2016-08-19T06:38:21.939Z,1012.99
2016-08-19T06:39:21.971Z,1012.98
2016-08-19T06:40:22.003Z,1013.02
2016-08-19T06:41:22.036Z,1013
2016-08-19T06:42:22.122Z,1013.02
2016-08-19T06:43:22.102Z,1012.98
2016-08-19T06:44:22.129Z,1012.97
2016-08-19T06:45:22.162Z,1012.95
2016-08-19T06:46:22.191Z,1012.98
2016-08-19T06:47:22.222Z,1012.98
2016-08-19T06:48:22.260Z,1013.02
2016-08-19T06:49:22.294Z,1013.03
2016-08-19T06:50:22.316Z,1013.03
2016-08-19T06:51:22.353Z,1013.03
2016-08-19T06:52:22.381Z,1013.06
2016-08-19T06:53:22.420Z,1013.07
2016-08-19T06:54:22.444Z,1013.07
2016-08-19T06:55:22.484Z,1013.03
2016-08-19T06:56:22.511Z,1013.05
2016-08-19T06:57:22.543Z,1013.03
2016-08-19T06:58:22.576Z,1013.02
2016-08-19T06:59:22.604Z,1013.04
2016-08-19T07:00:22.638Z,1013.04
2016-08-19T07:01:22.671Z,1013.06
2016-08-19T07:02:22.704Z,1013.06
2016-08-19T07:03:22.732Z,1013.07
2016-08-19T07:04:22.770Z,1013.03
2016-08-19T07:05:22.800Z,1013.09
2016-08-19T07:06:22.827Z,1013.08
2016-08-19T07:07:22.865Z,1013.1
2016-08-19T07:08:22.893Z,1013.06
2016-08-19T07:09:22.922Z,1013.07
2016-08-19T07:10:22.958Z,1013.07
2016-08-19T07:11:22.994Z,1013.03
2016-08-19T07:12:23.022Z,1013.03
2016-08-19T07:13:23.052Z,1013.02
2016-08-19T07:14:23.084Z,1013.03
2016-08-19T07:15:23.116Z,1013.01
2016-08-19T07:16:23.155Z,1013.02
2016-08-19T07:17:23.184Z,1013.02
2016-08-19T07:18:23.215Z,1013.01
2016-08-19T07:19:23.243Z,1013.05
2016-08-19T07:20:23.282Z,1013.01
2016-08-19T07:21:23.312Z,1013.04
2016-08-19T07:22:23.351Z,1013.05
2016-08-19T07:23:23.375Z,1013.02
2016-08-19T07:24:23.405Z,1013.08
2016-08-19T07:25:23.445Z,1013.1
2016-08-19T07:26:23.474Z,1013.13
2016-08-19T07:27:23.503Z,1013.13
2016-08-19T07:28:23.535Z,1013.1
2016-08-19T07:29:23.571Z,1013.07
2016-08-19T07:30:23.606Z,1013.12
2016-08-19T07:31:23.637Z,1013.09
2016-08-19T07:32:23.665Z,1013.08
2016-08-19T07:33:23.693Z,1013.07
2016-08-19T07:34:23.725Z,1013.04
2016-08-19T07:35:23.755Z,1013.08
2016-08-19T07:36:23.791Z,1013.07
2016-08-19T07:37:23.825Z,1013.08
2016-08-19T07:38:23.854Z,1013.06
2016-08-19T07:39:23.885Z,1013.07
2016-08-19T07:40:23.923Z,1013.02
2016-08-19T07:41:23.954Z,1013.01
2016-08-19T07:42:23.982Z,1012.99
2016-08-19T07:43:24.015Z,1013
2016-08-19T07:44:24.045Z,1013
2016-08-19T07:45:24.079Z,1012.99
2016-08-19T07:46:24.114Z,1012.98
2016-08-19T07:47:24.143Z,1012.99
2016-08-19T07:48:24.167Z,1013.01
2016-08-19T07:49:24.206Z,1013
2016-08-19T07:50:24.231Z,1013
2016-08-19T07:51:24.269Z,1013.01
2016-08-19T07:52:24.295Z,1013.05
2016-08-19T07:53:24.329Z,1013.05
2016-08-19T07:54:24.361Z,1013.02
2016-08-19T07:55:24.392Z,1013.05
2016-08-19T07:56:24.423Z,1013.03
2016-08-19T07:57:24.462Z,1012.96
2016-08-19T07:58:24.490Z,1012.94
2016-08-19T07:59:24.530Z,1012.89
2016-08-19T08:00:24.551Z,1012.83
2016-08-19T08:01:24.585Z,1012.84
2016-08-19T08:02:24.619Z,1012.84
2016-08-19T08:03:24.649Z,1012.79
2016-08-19T08:04:24.676Z,1012.79
2016-08-19T08:05:24.709Z,1012.75
2016-08-19T08:06:24.732Z,1012.75
2016-08-19T08:07:24.763Z,1012.78
2016-08-19T08:08:24.794Z,1012.8
2016-08-19T08:09:24.824Z,1012.79
2016-08-19T08:10:24.848Z,1012.73
2016-08-19T08:11:24.882Z,1012.74
2016-08-19T08:12:24.903Z,1012.74
2016-08-19T08:13:24.934Z,1012.68
2016-08-19T08:14:24.964Z,1012.72
2016-08-19T08:15:24.993Z,1012.73
2016-08-19T08:16:25.023Z,1012.68
2016-08-19T08:17:25.049Z,1012.71
2016-08-19T08:18:25.072Z,1012.69
2016-08-19T08:19:25.105Z,1012.67
2016-08-19T08:20:25.125Z,1012.68
2016-08-19T08:21:25.162Z,1012.66
2016-08-19T08:22:25.176Z,1012.7
2016-08-19T08:23:25.201Z,1012.69
2016-08-19T08:24:25.232Z,1012.69
2016-08-19T08:25:25.255Z,1012.76
2016-08-19T08:26:25.283Z,1012.77
2016-08-19T08:27:25.307Z,1012.73
2016-08-19T08:28:25.330Z,1012.72
2016-08-19T08:29:25.353Z,1012.73
2016-08-19T08:30:25.380Z,1012.78
2016-08-19T08:31:25.418Z,1012.74
2016-08-19T08:32:25.483Z,1012.77
2016-08-19T08:33:25.461Z,1012.75
2016-08-19T08:34:25.486Z,1012.72
2016-08-19T08:35:25.509Z,1012.75
2016-08-19T08:36:25.533Z,1012.74
2016-08-19T08:37:25.556Z,1012.74
2016-08-19T08:38:25.589Z,1012.7
2016-08-19T08:39:25.614Z,1012.69
2016-08-19T08:40:25.725Z,1012.74
2016-08-19T08:41:25.660Z,1012.69
2016-08-19T08:42:25.686Z,1012.71
2016-08-19T08:43:25.716Z,1012.72
2016-08-19T08:44:25.734Z,1012.69
2016-08-19T08:45:25.773Z,1012.67
2016-08-19T08:46:25.785Z,1012.68
2016-08-19T08:47:25.811Z,1012.67
2016-08-19T08:48:25.834Z,1012.66
2016-08-19T08:49:25.865Z,1012.66
2016-08-19T08:50:25.879Z,1012.62
2016-08-19T08:51:25.912Z,1012.67
2016-08-19T08:52:25.933Z,1012.69
2016-08-19T08:53:25.974Z,1012.66
2016-08-19T08:54:25.985Z,1012.67
2016-08-19T08:55:26.003Z,1012.72
2016-08-19T08:56:26.040Z,1012.69
2016-08-19T08:57:26.055Z,1012.69
2016-08-19T08:58:26.084Z,1012.67
2016-08-19T08:59:26.102Z,1012.66
2016-08-19T09:00:26.134Z,1012.66
2016-08-19T09:01:26.152Z,1012.62
2016-08-19T09:02:26.192Z,1012.64
2016-08-19T09:03:26.204Z,1012.65
2016-08-19T09:04:26.228Z,1012.62
2016-08-19T09:05:26.252Z,1012.63
2016-08-19T09:06:26.281Z,1012.65
2016-08-19T09:07:26.304Z,1012.63
2016-08-19T09:08:26.330Z,1012.62
2016-08-19T09:09:26.355Z,1012.57
2016-08-19T09:10:26.373Z,1012.63
2016-08-19T09:11:26.403Z,1012.63
2016-08-19T09:12:26.431Z,1012.62
2016-08-19T09:13:26.446Z,1012.56
2016-08-19T09:14:26.473Z,1012.57
2016-08-19T09:15:26.503Z,1012.56
2016-08-19T09:16:26.520Z,1012.53
2016-08-19T09:17:26.543Z,1012.54
2016-08-19T09:18:26.571Z,1012.55
2016-08-19T09:19:26.605Z,1012.54
2016-08-19T09:20:26.622Z,1012.51
2016-08-19T09:21:26.664Z,1012.54
2016-08-19T09:22:26.672Z,1012.57
2016-08-19T09:23:26.699Z,1012.55
2016-08-19T09:24:26.728Z,1012.52
2016-08-19T09:25:26.743Z,1012.54
2016-08-19T09:26:26.773Z,1012.51
2016-08-19T09:27:26.793Z,1012.49
2016-08-19T09:28:26.823Z,1012.48
2016-08-19T09:29:26.846Z,1012.48
2016-08-19T09:30:26.867Z,1012.49
2016-08-19T09:31:26.901Z,1012.48
2016-08-19T09:32:26.968Z,1012.51
2016-08-19T09:33:26.944Z,1012.52
2016-08-19T09:34:26.972Z,1012.46
2016-08-19T09:35:27.004Z,1012.46
2016-08-19T09:36:27.022Z,1012.45
2016-08-19T09:37:27.042Z,1012.46
2016-08-19T09:38:27.074Z,1012.4
2016-08-19T09:39:27.091Z,1012.43
2016-08-19T09:40:27.117Z,1012.43
2016-08-19T09:41:27.153Z,1012.43
2016-08-19T09:42:27.172Z,1012.44
2016-08-19T09:43:27.192Z,1012.42
2016-08-19T09:44:27.217Z,1012.45
2016-08-19T09:45:27.238Z,1012.38
2016-08-19T09:46:27.273Z,1012.35
2016-08-19T09:47:27.288Z,1012.36
2016-08-19T09:48:27.323Z,1012.38
2016-08-19T09:49:27.344Z,1012.33
2016-08-19T09:50:27.367Z,1012.29
2016-08-19T09:51:27.393Z,1012.33
2016-08-19T09:52:27.417Z,1012.35
2016-08-19T09:53:27.446Z,1012.39
2016-08-19T09:54:27.473Z,1012.36
2016-08-19T09:55:27.491Z,1012.35
2016-08-19T09:56:27.524Z,1012.38
2016-08-19T09:57:27.539Z,1012.4
2016-08-19T09:58:27.573Z,1012.34
2016-08-19T09:59:27.588Z,1012.37
2016-08-19T10:00:27.615Z,1012.39
2016-08-19T10:01:27.642Z,1012.35
2016-08-19T10:02:27.665Z,1012.33
2016-08-19T10:03:27.691Z,1012.28
2016-08-19T10:04:27.721Z,1012.29
2016-08-19T10:05:27.741Z,1012.28
2016-08-19T10:06:27.767Z,1012.27
2016-08-19T10:07:27.791Z,1012.29
2016-08-19T10:08:27.826Z,1012.24
2016-08-19T10:09:27.842Z,1012.22
2016-08-19T10:10:27.972Z,1012.24
2016-08-19T10:11:27.892Z,1012.2
2016-08-19T10:12:27.921Z,1012.2
2016-08-19T10:13:27.942Z,1012.13
2016-08-19T10:14:27.973Z,1012.17
2016-08-19T10:15:27.991Z,1012.13
2016-08-19T10:16:28.023Z,1012.19
2016-08-19T10:17:28.039Z,1012.14
2016-08-19T10:18:28.063Z,1012.18
2016-08-19T10:19:28.094Z,1012.17
2016-08-19T10:20:28.119Z,1012.17
2016-08-19T10:21:28.139Z,1012.19
2016-08-19T10:22:28.166Z,1012.19
2016-08-19T10:23:28.186Z,1012.16
2016-08-19T10:24:28.212Z,1012.18
2016-08-19T10:25:28.241Z,1012.2
2016-08-19T10:26:28.262Z,1012.19
2016-08-19T10:27:28.292Z,1012.19
2016-08-19T10:28:28.321Z,1012.14
2016-08-19T10:29:28.340Z,1012.18
2016-08-19T10:30:28.372Z,1012.15
2016-08-19T10:31:28.391Z,1012.12
2016-08-19T10:32:28.488Z,1012.12
2016-08-19T10:33:28.435Z,1012.17
2016-08-19T10:34:28.471Z,1012.16
2016-08-19T10:35:28.487Z,1012.2
2016-08-19T10:36:28.523Z,1012.17
2016-08-19T10:37:28.553Z,1012.19
2016-08-19T10:38:28.573Z,1012.19
2016-08-19T10:39:28.592Z,1012.17
2016-08-19T10:40:28.623Z,1012.14
2016-08-19T10:41:28.643Z,1012.11
2016-08-19T10:42:28.663Z,1012.1
2016-08-19T10:43:28.691Z,1012.09
2016-08-19T10:44:28.714Z,1012.03
2016-08-19T10:45:28.744Z,1012.07
2016-08-19T10:46:28.774Z,1012.09
2016-08-19T10:47:28.791Z,1012.09
2016-08-19T10:48:28.824Z,1012.15
2016-08-19T10:49:28.841Z,1012.14
2016-08-19T10:50:28.873Z,1012.14
2016-08-19T10:51:28.891Z,1012.11
2016-08-19T10:52:28.930Z,1012.12
2016-08-19T10:53:28.952Z,1012.14
2016-08-19T10:54:28.970Z,1012.06
2016-08-19T10:55:28.993Z,1012.08
2016-08-19T10:56:29.022Z,1012.06
2016-08-19T10:57:29.050Z,1012
2016-08-19T10:58:29.078Z,1011.97
2016-08-19T10:59:29.095Z,1012
2016-08-19T11:00:29.126Z,1012.01
2016-08-19T11:01:29.152Z,1012.03
2016-08-19T11:02:29.182Z,1012.05
2016-08-19T11:03:29.201Z,1012.06
2016-08-19T11:04:29.233Z,1011.99
2016-08-19T11:05:29.251Z,1012.01
2016-08-19T11:06:29.281Z,1011.96
2016-08-19T11:07:29.301Z,1011.98
2016-08-19T11:08:29.329Z,1012
2016-08-19T11:09:29.365Z,1011.97
2016-08-19T11:10:29.389Z,1012.01
2016-08-19T11:11:29.404Z,1012
2016-08-19T11:12:29.433Z,1011.98
2016-08-19T11:13:29.460Z,1012.03
2016-08-19T11:14:29.492Z,1011.95
2016-08-19T11:15:29.510Z,1011.97
2016-08-19T11:16:29.540Z,1011.93
2016-08-19T11:17:29.575Z,1011.93
2016-08-19T11:18:29.591Z,1011.87
2016-08-19T11:19:29.619Z,1011.9
2016-08-19T11:20:29.639Z,1011.82
2016-08-19T11:21:29.672Z,1011.87
2016-08-19T11:22:29.689Z,1011.86
2016-08-19T11:23:29.716Z,1011.83
2016-08-19T11:24:29.740Z,1011.8
2016-08-19T11:25:30.122Z,1011.8
2016-08-19T11:26:29.941Z,1011.79
2016-08-19T11:27:30.166Z,1011.79
2016-08-19T11:28:29.951Z,1011.78
2016-08-19T11:29:30.021Z,1011.74
2016-08-19T11:30:29.895Z,1011.8
2016-08-19T11:31:29.969Z,1011.8
2016-08-19T11:32:29.998Z,1011.77
2016-08-19T11:33:30.023Z,1011.74
2016-08-19T11:34:30.001Z,1011.74
2016-08-19T11:35:30.175Z,1011.72
2016-08-19T11:36:30.117Z,1011.78
2016-08-19T11:37:30.069Z,1011.76
2016-08-19T11:38:30.129Z,1011.75
2016-08-19T11:39:30.134Z,1011.79
2016-08-19T11:40:30.251Z,1011.72
2016-08-19T11:41:30.184Z,1011.76
2016-08-19T11:42:30.256Z,1011.74
2016-08-19T11:43:30.233Z,1011.72
2016-08-19T11:44:30.265Z,1011.73
2016-08-19T11:45:30.278Z,1011.75
2016-08-19T11:46:30.307Z,1011.78
2016-08-19T11:47:30.332Z,1011.82
2016-08-19T11:48:30.362Z,1011.82
2016-08-19T11:49:30.386Z,1011.78
2016-08-19T11:50:30.415Z,1011.78
2016-08-19T11:51:30.444Z,1011.78
2016-08-19T11:52:30.463Z,1011.75
2016-08-19T11:53:30.485Z,1011.75
2016-08-19T11:54:30.508Z,1011.77
2016-08-19T11:55:30.539Z,1011.74
2016-08-19T11:56:30.560Z,1011.7
2016-08-19T11:57:30.595Z,1011.72
2016-08-19T11:58:30.614Z,1011.69
2016-08-19T11:59:30.636Z,1011.67
2016-08-19T12:00:30.670Z,1011.69
2016-08-19T12:01:30.703Z,1011.7
2016-08-19T12:02:30.721Z,1011.72
2016-08-19T12:03:30.754Z,1011.72
2016-08-19T12:04:30.766Z,1011.66
2016-08-19T12:05:30.799Z,1011.61
2016-08-19T12:06:30.821Z,1011.64
2016-08-19T12:07:30.849Z,1011.67
2016-08-19T12:08:30.869Z,1011.73
2016-08-19T12:09:30.899Z,1011.64